Time;durP1;ratioP1;P1;durP2;ratioP2;P2;SDS_P1;SDS_P2;PMS_P1;PMS_P2;Temp;Humidity;BMP_temperature;BMP_pressure;BME280_temperature;BME280_humidity;BME280_pressure;Samples;Min_cycle;Max_cycle;Signal;HPM_P1;HPM_P2
2022/05/31 00:02:17;;;;;;;5.90;3.67;;;12.80;99.90;;;;;;5030974;28;20556;-48
2022/05/31 00:04:44;;;;;;;8.03;4.20;;;12.90;99.90;;;;;;5030928;28;20431;-48
2022/05/31 00:07:12;;;;;;;4.97;2.87;;;12.70;99.90;;;;;;5029668;28;20455;-48
2022/05/31 00:09:38;;;;;;;6.30;3.40;;;13.00;99.90;;;;;;5030499;28;20555;-48
2022/05/31 00:12:06;;;;;;;7.60;4.23;;;13.30;99.90;;;;;;5031060;28;20888;-47
2022/05/31 00:14:33;;;;;;;5.73;3.33;;;12.60;99.90;;;;;;5030985;28;20520;-47
2022/05/31 00:17:00;;;;;;;5.77;3.10;;;12.50;99.90;;;;;;5030898;28;20431;-48
2022/05/31 00:19:27;;;;;;;6.73;3.60;;;12.80;99.90;;;;;;5030453;28;20896;-48
2022/05/31 00:22:00;;;;;;;5.93;3.87;;;13.00;99.90;;;;;;5030823;28;20452;-47
2022/05/31 00:24:28;;;;;;;8.80;4.00;;;13.10;99.90;;;;;;5030867;28;20431;-48
2022/05/31 00:26:54;;;;;;;3.90;3.47;;;13.40;99.90;;;;;;5030813;28;20442;-49
2022/05/31 00:29:21;;;;;;;7.27;3.30;;;13.40;99.90;;;;;;5029156;28;20447;-49
2022/05/31 00:31:49;;;;;;;4.27;3.30;;;13.20;99.90;;;;;;5029279;28;20479;-49
2022/05/31 00:34:18;;;;;;;7.10;3.40;;;13.30;99.90;;;;;;5030728;28;20456;-49
2022/05/31 00:36:47;;;;;;;5.93;3.13;;;13.20;99.90;;;;;;5033507;28;20450;-49
2022/05/31 00:39:14;;;;;;;5.07;3.60;;;13.40;99.90;;;;;;5032820;28;20456;-49
2022/05/31 00:41:42;;;;;;;4.23;3.47;;;13.30;99.90;;;;;;5034501;28;20488;-48
2022/05/31 00:44:11;;;;;;;4.60;2.70;;;12.90;99.70;;;;;;5034617;28;20437;-48
2022/05/31 00:46:47;;;;;;;4.90;3.20;;;13.10;99.80;;;;;;5034600;28;20503;-48
2022/05/31 00:49:20;;;;;;;4.73;3.13;;;13.00;99.40;;;;;;5034769;28;20438;-48
2022/05/31 00:51:50;;;;;;;5.10;2.63;;;13.30;99.60;;;;;;5032792;28;20567;-48
2022/05/31 00:54:20;;;;;;;4.03;2.83;;;13.30;99.30;;;;;;5034463;28;20434;-48
2022/05/31 00:56:50;;;;;;;2.83;2.20;;;13.30;99.20;;;;;;5034567;28;20919;-49
2022/05/31 00:59:21;;;;;;;3.47;2.40;;;13.40;99.30;;;;;;5034189;28;20435;-51
2022/05/31 01:01:52;;;;;;;4.00;2.47;;;13.30;99.10;;;;;;5032984;28;20462;-48
2022/05/31 01:04:23;;;;;;;9.87;2.30;;;13.10;98.80;;;;;;5034182;28;20847;-48
2022/05/31 01:06:49;;;;;;;5.33;2.50;;;13.40;98.60;;;;;;5034147;28;20431;-48
2022/05/31 01:09:16;;;;;;;3.30;2.17;;;13.30;98.20;;;;;;5033919;28;20953;-49
2022/05/31 01:11:44;;;;;;;3.23;2.70;;;13.10;98.10;;;;;;5033970;28;20473;-49
2022/05/31 01:14:31;;;;;;;4.23;2.60;;;13.20;98.10;;;;;;5034878;28;20528;-48
2022/05/31 01:17:20;;;;;;;4.23;2.23;;;13.60;98.20;;;;;;5034489;28;20422;-49
2022/05/31 01:20:22;;;;;;;3.53;1.90;;;13.30;98.00;;;;;;5033407;28;20949;-48
2022/05/31 01:23:06;;;;;;;3.40;2.10;;;13.30;97.80;;;;;;5032756;28;20484;-48
2022/05/31 01:25:55;;;;;;;3.13;2.13;;;13.20;97.60;;;;;;5032756;28;20556;-49
2022/05/31 01:28:32;;;;;;;3.83;1.90;;;13.20;97.70;;;;;;5032823;28;20456;-48
2022/05/31 01:31:06;;;;;;;4.10;2.00;;;13.30;97.60;;;;;;5032532;28;20459;-48
2022/05/31 01:33:40;;;;;;;2.70;1.90;;;13.60;97.60;;;;;;5034318;28;20464;-48
2022/05/31 01:36:13;;;;;;;6.10;2.40;;;13.40;97.40;;;;;;5034205;28;20500;-48
2022/05/31 01:38:45;;;;;;;3.07;2.07;;;13.20;97.40;;;;;;5032128;28;20996;-49
2022/05/31 01:41:19;;;;;;;4.90;2.17;;;13.10;97.20;;;;;;5032091;28;20975;-47
2022/05/31 01:43:48;;;;;;;3.77;1.97;;;13.60;97.40;;;;;;5032204;28;20528;-48
2022/05/31 01:46:20;;;;;;;5.80;1.97;;;13.50;97.40;;;;;;5033470;28;20444;-48
2022/05/31 01:48:47;;;;;;;2.97;2.10;;;13.20;97.10;;;;;;5031683;28;20537;-47
2022/05/31 01:51:15;;;;;;;6.50;2.30;;;13.50;97.30;;;;;;5031867;28;20457;-49
2022/05/31 01:53:42;;;;;;;5.03;2.40;;;13.20;97.20;;;;;;5033209;28;20857;-48
2022/05/31 01:56:11;;;;;;;4.20;2.33;;;13.30;97.20;;;;;;5032155;28;20498;-48
2022/05/31 01:58:41;;;;;;;6.27;2.47;;;13.50;97.40;;;;;;5031567;28;20452;-49
2022/05/31 02:01:09;;;;;;;3.40;2.20;;;13.20;97.30;;;;;;5031941;28;20552;-48
2022/05/31 02:03:40;;;;;;;5.00;2.30;;;12.60;97.00;;;;;;5031725;28;20786;-48
2022/05/31 02:06:24;;;;;;;5.00;2.10;;;13.50;97.40;;;;;;5033222;28;20433;-48
2022/05/31 02:08:51;;;;;;;3.20;2.00;;;13.40;97.50;;;;;;5031309;28;20456;-48
2022/05/31 02:11:17;;;;;;;4.60;2.37;;;13.00;97.20;;;;;;5033199;28;20443;-48
2022/05/31 02:13:45;;;;;;;2.40;1.83;;;13.00;97.20;;;;;;5031971;28;20469;-48
2022/05/31 02:16:14;;;;;;;3.10;2.07;;;12.60;97.30;;;;;;5033356;28;20485;-47
2022/05/31 02:21:50;;;;;;;3.00;2.30;;;13.20;97.70;;;;;;5033285;28;20437;-48
2022/05/31 02:24:18;;;;;;;4.60;2.00;;;12.50;97.70;;;;;;5031507;28;20458;-47
2022/05/31 02:26:46;;;;;;;3.87;2.20;;;13.00;97.90;;;;;;5031473;28;20478;-48
2022/05/31 02:29:17;;;;;;;4.73;2.97;;;12.80;97.90;;;;;;5030787;28;20535;-48
2022/05/31 02:31:44;;;;;;;6.63;2.50;;;12.60;97.80;;;;;;5031198;28;20483;-47
2022/05/31 02:34:13;;;;;;;5.43;2.57;;;12.20;97.80;;;;;;5032604;28;20514;-48
2022/05/31 02:36:39;;;;;;;3.60;2.40;;;12.70;98.10;;;;;;5031166;28;20945;-48
2022/05/31 02:39:08;;;;;;;5.43;2.67;;;12.40;98.20;;;;;;5030599;28;20957;-48
2022/05/31 02:41:38;;;;;;;4.63;2.90;;;12.90;98.60;;;;;;5030985;28;20504;-48
2022/05/31 02:44:06;;;;;;;5.20;2.73;;;12.50;98.30;;;;;;5030959;28;20479;-48
2022/05/31 02:46:33;;;;;;;5.60;2.83;;;12.50;98.60;;;;;;5030996;28;20791;-48
2022/05/31 02:49:00;;;;;;;2.60;2.27;;;12.40;98.50;;;;;;5030249;28;20483;-48
2022/05/31 02:51:27;;;;;;;3.37;2.63;;;12.10;98.50;;;;;;5030794;28;20800;-49
2022/05/31 02:53:54;;;;;;;4.57;2.27;;;12.80;99.10;;;;;;5031242;28;20551;-48
2022/05/31 02:56:35;;;;;;;3.67;2.63;;;12.70;99.10;;;;;;5030119;28;20485;-48
2022/05/31 02:59:31;;;;;;;2.50;2.20;;;12.80;99.20;;;;;;5031458;28;20531;-47
2022/05/31 03:02:18;;;;;;;6.13;2.40;;;12.60;99.00;;;;;;5031850;28;21025;-48
2022/05/31 03:05:04;;;;;;;5.73;2.90;;;12.70;99.00;;;;;;5031964;28;20826;-48
2022/05/31 03:08:00;;;;;;;3.30;2.73;;;12.40;99.00;;;;;;5032293;28;20452;-48
2022/05/31 03:10:33;;;;;;;5.87;2.70;;;12.60;99.40;;;;;;5029865;28;20865;-49
2022/05/31 03:13:01;;;;;;;4.80;2.30;;;12.50;99.00;;;;;;5030378;28;20521;-49
2022/05/31 03:15:29;;;;;;;4.10;3.47;;;12.50;99.30;;;;;;5030187;28;20455;-49
2022/05/31 03:18:00;;;;;;;3.00;2.70;;;12.10;99.10;;;;;;5031868;28;20455;-49
2022/05/31 03:20:32;;;;;;;8.13;2.57;;;12.80;99.40;;;;;;5030119;28;20456;-49
2022/05/31 03:23:05;;;;;;;7.00;2.63;;;12.70;99.30;;;;;;5031623;28;20797;-47
2022/05/31 03:25:33;;;;;;;5.00;2.60;;;12.70;99.40;;;;;;5031763;28;20473;-48
2022/05/31 03:28:05;;;;;;;9.23;2.63;;;13.00;99.60;;;;;;5031771;28;20471;-49
2022/05/31 03:30:33;;;;;;;7.00;2.30;;;12.90;99.50;;;;;;5029808;28;20991;-49
2022/05/31 03:33:01;;;;;;;8.33;2.80;;;12.90;99.40;;;;;;5030051;28;20463;-49
2022/05/31 03:35:29;;;;;;;8.60;2.70;;;13.00;99.40;;;;;;5031248;28;20872;-48
2022/05/31 03:37:59;;;;;;;9.70;2.93;;;12.80;99.20;;;;;;5029973;28;20926;-49
2022/05/31 03:43:24;;;;;;;7.13;3.00;;;12.70;99.10;;;;;;5029733;28;20460;-47
2022/05/31 03:46:11;;;;;;;5.87;2.70;;;13.10;99.20;;;;;;5031343;28;20474;-49
2022/05/31 03:48:44;;;;;;;5.40;2.53;;;13.60;99.40;;;;;;5029182;28;20460;-48
2022/05/31 03:51:13;;;;;;;3.90;2.80;;;13.30;99.20;;;;;;5029763;28;20454;-50
2022/05/31 03:53:40;;;;;;;4.60;3.00;;;13.30;99.00;;;;;;5029561;28;20510;-48
2022/05/31 03:56:10;;;;;;;6.03;3.10;;;13.40;99.00;;;;;;5029664;28;20474;-49
2022/05/31 03:58:40;;;;;;;8.93;2.83;;;13.50;98.80;;;;;;5029253;28;20446;-48
2022/05/31 04:01:18;;;;;;;2.57;2.37;;;14.00;98.90;;;;;;5029628;28;20820;-48
2022/05/31 04:03:46;;;;;;;7.33;3.17;;;13.50;98.40;;;;;;5029335;28;20455;-48
2022/05/31 04:06:15;;;;;;;6.70;2.60;;;13.40;98.30;;;;;;5029595;28;20504;-48
2022/05/31 04:08:41;;;;;;;5.20;2.80;;;13.90;98.30;;;;;;5028552;28;21061;-49
2022/05/31 04:11:09;;;;;;;4.97;2.97;;;13.80;98.10;;;;;;5029595;28;20459;-49
2022/05/31 04:13:36;;;;;;;4.80;2.83;;;13.50;97.90;;;;;;5055600;22;20531;-47
2022/05/31 04:16:26;;;;;;;9.53;3.37;;;14.00;98.10;;;;;;5031800;28;20472;-48
2022/05/31 04:19:04;;;;;;;4.63;3.00;;;14.40;98.20;;;;;;5029719;28;20977;-51
2022/05/31 04:21:31;;;;;;;5.17;2.90;;;14.10;97.90;;;;;;5030181;28;20445;-49
2022/05/31 04:24:02;;;;;;;4.50;2.20;;;15.20;98.20;;;;;;5030204;28;20527;-50
2022/05/31 04:26:40;;;;;;;5.47;2.90;;;14.20;97.70;;;;;;5031696;28;20508;-49
2022/05/31 04:29:25;;;;;;;7.60;3.00;;;14.00;97.40;;;;;;5031053;28;20494;-48
2022/05/31 04:32:12;;;;;;;6.97;2.60;;;14.20;97.30;;;;;;5031671;28;20445;-49
2022/05/31 04:34:42;;;;;;;3.70;2.20;;;14.30;97.10;;;;;;5031756;28;20450;-49
2022/05/31 04:37:10;;;;;;;11.73;3.57;;;14.50;96.90;;;;;;5030049;28;21052;-48
2022/05/31 04:39:55;;;;;;;5.70;2.47;;;14.30;96.50;;;;;;5031074;28;20485;-48
2022/05/31 04:43:00;;;;;;;9.70;2.80;;;15.00;96.60;;;;;;5009509;28;20465;-50
2022/05/31 04:45:42;;;;;;;5.07;2.90;;;15.00;96.10;;;;;;5009267;28;20478;-50
2022/05/31 04:48:25;;;;;;;6.97;3.07;;;15.10;95.90;;;;;;5022913;28;20499;-49
2022/05/31 04:50:52;;;;;;;5.53;3.17;;;15.30;95.70;;;;;;5029890;28;20881;-48
2022/05/31 04:53:19;;;;;;;6.43;3.20;;;15.50;95.50;;;;;;5029968;28;20474;-50
2022/05/31 04:56:11;;;;;;;5.03;3.37;;;15.30;95.40;;;;;;5031144;28;20471;-49
2022/05/31 04:58:38;;;;;;;4.93;3.20;;;15.60;95.30;;;;;;5029498;28;20451;-48
2022/05/31 05:01:06;;;;;;;4.83;3.50;;;15.50;95.20;;;;;;5029915;28;20501;-48
2022/05/31 05:03:41;;;;;;;6.33;3.20;;;16.00;95.30;;;;;;5029821;28;20470;-49
2022/05/31 05:06:10;;;;;;;5.33;3.13;;;16.30;95.30;;;;;;5029751;28;20974;-48
2022/05/31 05:08:39;;;;;;;4.80;3.23;;;16.40;95.00;;;;;;5029922;28;20458;-49
2022/05/31 05:11:09;;;;;;;9.43;4.27;;;16.30;94.70;;;;;;5029542;28;20490;-49
2022/05/31 05:13:42;;;;;;;4.30;3.00;;;16.30;94.50;;;;;;5030903;28;20563;-49
2022/05/31 05:16:10;;;;;;;5.83;3.00;;;16.10;94.30;;;;;;5031513;28;20515;-49
2022/05/31 05:18:40;;;;;;;6.83;4.17;;;16.50;94.10;;;;;;5029192;28;20532;-50
2022/05/31 05:21:09;;;;;;;4.97;3.30;;;16.10;93.80;;;;;;5031978;28;20491;-50
2022/05/31 05:23:38;;;;;;;5.83;3.50;;;16.70;93.90;;;;;;5033055;28;20518;-51
2022/05/31 05:26:10;;;;;;;6.10;4.00;;;15.80;93.40;;;;;;5032909;28;20451;-51
2022/05/31 05:31:40;;;;;;;5.97;3.47;;;16.20;93.40;;;;;;5032778;28;20546;-51
2022/05/31 05:34:26;;;;;;;4.83;3.37;;;16.30;93.40;;;;;;5034392;28;20435;-48
2022/05/31 05:36:57;;;;;;;7.50;3.33;;;16.40;93.30;;;;;;5032554;28;20631;-49
2022/05/31 05:39:24;;;;;;;8.63;3.67;;;16.20;93.10;;;;;;5032302;28;20455;-50
2022/05/31 05:42:14;;;;;;;6.90;3.80;;;16.90;93.30;;;;;;5033175;28;20483;-52
2022/05/31 05:45:02;;;;;;;5.53;3.60;;;16.30;92.70;;;;;;5034194;28;20452;-51
2022/05/31 05:47:29;;;;;;;5.20;2.97;;;16.60;92.70;;;;;;5032341;28;20821;-50
2022/05/31 05:49:57;;;;;;;8.30;4.10;;;16.90;92.60;;;;;;5033772;28;20438;-50
2022/05/31 05:53:05;;;;;;;4.80;2.20;;;17.20;92.10;;;;;;5011170;28;20460;-50
2022/05/31 05:55:50;;;;;;;6.23;2.67;;;16.90;91.10;;;;;;5011680;28;20578;-51
2022/05/31 05:58:36;;;;;;;5.17;2.30;;;16.90;90.60;;;;;;5027707;28;20533;-49
2022/05/31 06:01:27;;;;;;;4.50;2.80;;;17.00;90.20;;;;;;5034171;28;20430;-50
2022/05/31 06:04:07;;;;;;;3.13;2.70;;;17.20;90.00;;;;;;5032419;28;20492;-51
2022/05/31 06:06:38;;;;;;;8.23;3.93;;;17.20;90.50;;;;;;5033897;28;20520;-51
2022/05/31 06:09:08;;;;;;;11.00;6.53;;;17.10;90.20;;;;;;5033536;28;20549;-50
2022/05/31 06:11:41;;;;;;;5.67;2.73;;;17.00;89.80;;;;;;5032303;28;20444;-51
2022/05/31 06:14:12;;;;;;;4.50;3.03;;;17.00;89.30;;;;;;5032879;28;20760;-49
2022/05/31 06:16:43;;;;;;;9.43;3.53;;;17.60;90.30;;;;;;5034003;28;20483;-52
2022/05/31 06:19:16;;;;;;;5.80;4.03;;;17.50;89.50;;;;;;5032078;28;20452;-49
2022/05/31 06:21:44;;;;;;;9.87;3.50;;;17.50;88.90;;;;;;5033921;28;20547;-51
2022/05/31 06:24:19;;;;;;;5.83;3.00;;;17.70;88.10;;;;;;5032576;28;20555;-50
2022/05/31 06:26:47;;;;;;;5.10;3.30;;;17.40;87.40;;;;;;5032227;28;20448;-50
2022/05/31 06:29:14;;;;;;;5.70;2.67;;;17.60;87.40;;;;;;5031566;28;20515;-50
2022/05/31 06:31:41;;;;;;;8.50;3.77;;;17.70;86.60;;;;;;5030615;28;20956;-49
2022/05/31 06:34:17;;;;;;;8.70;3.13;;;17.70;85.80;;;;;;5031704;28;20443;-51
2022/05/31 06:37:18;;;;;;;5.97;2.80;;;17.70;85.20;;;;;;5031453;28;20488;-49
2022/05/31 06:39:46;;;;;;;6.77;2.23;;;18.00;85.00;;;;;;5031575;28;20498;-50
2022/05/31 06:42:30;;;;;;;4.20;2.30;;;17.20;82.50;;;;;;5031468;28;20503;-49
2022/05/31 06:45:19;;;;;;;4.17;2.67;;;17.30;81.80;;;;;;5032461;28;20950;-51
2022/05/31 06:48:05;;;;;;;5.40;2.63;;;17.50;82.00;;;;;;5032425;28;20555;-50
2022/05/31 06:51:04;;;;;;;3.90;2.90;;;17.40;82.60;;;;;;5013305;28;20466;-51
2022/05/31 06:56:51;;;;;;;4.93;3.20;;;17.60;83.30;;;;;;5032465;28;20841;-50
2022/05/31 06:59:26;;;;;;;3.77;2.40;;;16.00;81.40;;;;;;5030733;28;20482;-51
2022/05/31 07:01:53;;;;;;;3.30;2.50;;;17.30;82.40;;;;;;5030746;28;20474;-50
2022/05/31 07:04:20;;;;;;;4.03;2.40;;;17.50;82.50;;;;;;5031091;28;21027;-50
2022/05/31 07:06:47;;;;;;;5.40;2.17;;;17.50;82.20;;;;;;5031197;28;20448;-50
2022/05/31 07:09:34;;;;;;;5.40;2.47;;;17.40;81.80;;;;;;5032211;28;20987;-50
2022/05/31 07:12:13;;;;;;;5.87;2.53;;;17.80;81.80;;;;;;5031019;28;20496;-49
2022/05/31 07:14:58;;;;;;;6.10;2.90;;;17.80;80.90;;;;;;5033115;28;20424;-50
2022/05/31 07:17:41;;;;;;;4.47;2.43;;;18.00;79.10;;;;;;5031086;28;20490;-49
2022/05/31 07:20:10;;;;;;;5.87;2.60;;;17.60;77.70;;;;;;5030463;28;20528;-50
2022/05/31 07:22:38;;;;;;;5.80;2.90;;;17.70;77.40;;;;;;5030651;28;20599;-50
2022/05/31 07:25:22;;;;;;;4.13;2.20;;;17.60;77.20;;;;;;5030815;28;20461;-50
2022/05/31 07:27:54;;;;;;;10.70;2.60;;;17.80;77.10;;;;;;5030685;28;20597;-50
2022/05/31 07:30:21;;;;;;;3.57;2.07;;;17.60;77.00;;;;;;5030344;28;20452;-49
2022/05/31 07:32:48;;;;;;;5.73;1.80;;;18.00;77.10;;;;;;5030744;28;20530;-48
2022/05/31 07:35:15;;;;;;;3.20;1.90;;;17.50;76.50;;;;;;5030552;28;20453;-49
2022/05/31 07:37:41;;;;;;;9.37;3.00;;;18.00;77.00;;;;;;5030788;28;20852;-49
2022/05/31 07:40:10;;;;;;;4.03;2.10;;;17.80;76.80;;;;;;5030909;28;20562;-50
2022/05/31 07:42:38;;;;;;;5.23;1.53;;;17.90;76.10;;;;;;5030346;28;20531;-49
2022/05/31 07:45:07;;;;;;;4.00;1.90;;;17.90;75.20;;;;;;5031432;28;20980;-50
2022/05/31 07:47:33;;;;;;;3.80;2.17;;;17.90;74.50;;;;;;5032232;28;20534;-51
2022/05/31 07:50:00;;;;;;;3.00;1.90;;;18.20;74.80;;;;;;5030515;28;20847;-49
2022/05/31 07:52:48;;;;;;;4.97;2.27;;;17.90;74.10;;;;;;5032680;28;20526;-49
2022/05/31 07:55:34;;;;;;;6.40;2.50;;;18.00;73.70;;;;;;5032418;28;20572;-49
2022/05/31 07:58:33;;;;;;;4.80;2.10;;;18.30;73.60;;;;;;5031706;28;20479;-49
2022/05/31 08:01:22;;;;;;;8.67;2.40;;;18.00;73.30;;;;;;5031790;28;20924;-50
2022/05/31 08:03:50;;;;;;;3.93;1.77;;;18.30;73.40;;;;;;5030293;28;20846;-50
2022/05/31 08:06:19;;;;;;;7.93;2.40;;;18.00;73.00;;;;;;5030511;28;20523;-50
2022/05/31 08:08:46;;;;;;;4.30;2.10;;;18.10;72.80;;;;;;5030894;28;20970;-50
2022/05/31 08:11:15;;;;;;;3.80;2.60;;;18.40;72.80;;;;;;5031182;28;20444;-50
2022/05/31 08:13:43;;;;;;;7.23;2.43;;;17.70;71.20;;;;;;5031056;28;20484;-51
2022/05/31 08:16:14;;;;;;;2.70;1.67;;;18.10;71.90;;;;;;5031671;28;20432;-51
2022/05/31 08:18:42;;;;;;;3.27;1.80;;;17.90;71.30;;;;;;5031275;28;20485;-48
2022/05/31 08:21:11;;;;;;;3.67;1.90;;;18.60;71.60;;;;;;5031337;28;20441;-50
2022/05/31 08:23:39;;;;;;;7.40;2.70;;;18.00;71.00;;;;;;5030936;28;20479;-50
2022/05/31 08:26:06;;;;;;;4.47;2.17;;;18.10;70.80;;;;;;5031471;28;20426;-51
2022/05/31 08:28:34;;;;;;;4.87;1.80;;;18.20;71.00;;;;;;5031042;28;20448;-49
2022/05/31 08:31:04;;;;;;;5.60;1.97;;;18.20;70.60;;;;;;5031085;28;20438;-49
2022/05/31 08:33:30;;;;;;;3.17;2.20;;;18.20;70.50;;;;;;5030137;28;20477;-50
2022/05/31 08:35:58;;;;;;;3.83;2.00;;;18.60;70.30;;;;;;5031450;28;20436;-50
2022/05/31 08:38:25;;;;;;;5.50;2.40;;;18.40;69.90;;;;;;5030871;28;20490;-50
2022/05/31 08:41:08;;;;;;;4.20;2.73;;;18.60;69.40;;;;;;5031359;28;20591;-50
2022/05/31 08:43:48;;;;;;;3.83;2.10;;;18.70;68.90;;;;;;5031138;28;20471;-51
2022/05/31 08:46:24;;;;;;;8.10;2.97;;;18.60;68.70;;;;;;5031132;28;20453;-50
2022/05/31 08:48:56;;;;;;;4.07;1.83;;;18.50;67.50;;;;;;5030659;28;20459;-51
2022/05/31 08:51:52;;;;;;;3.43;1.70;;;18.50;66.20;;;;;;5031098;28;20498;-51
2022/05/31 08:57:14;;;;;;;3.90;1.80;;;18.60;66.50;;;;;;5033653;28;20521;-51
2022/05/31 08:59:54;;;;;;;11.20;2.83;;;18.60;66.70;;;;;;5033502;28;20457;-50
2022/05/31 09:02:29;;;;;;;3.50;1.83;;;18.60;66.20;;;;;;5034848;28;20795;-49
2022/05/31 09:05:03;;;;;;;4.83;2.00;;;19.10;66.70;;;;;;5034967;28;20513;-50
2022/05/31 09:07:35;;;;;;;9.03;1.80;;;18.70;66.00;;;;;;5033487;28;20889;-50
2022/05/31 09:10:07;;;;;;;4.83;2.20;;;18.80;65.70;;;;;;5034572;28;20803;-49
2022/05/31 09:12:42;;;;;;;4.20;2.30;;;18.90;65.10;;;;;;5034885;28;20948;-50
2022/05/31 09:15:15;;;;;;;5.83;2.57;;;18.80;64.10;;;;;;5034994;28;20446;-50
2022/05/31 09:17:53;;;;;;;3.10;1.63;;;19.00;62.40;;;;;;5034618;28;20516;-50
2022/05/31 09:20:33;;;;;;;3.27;1.83;;;18.80;61.50;;;;;;5034486;28;20453;-49
2022/05/31 09:23:00;;;;;;;5.87;3.23;;;19.30;61.90;;;;;;5034737;28;20836;-51
2022/05/31 09:25:28;;;;;;;3.77;1.80;;;19.30;61.60;;;;;;5034063;28;20492;-49
2022/05/31 09:27:54;;;;;;;3.97;2.03;;;19.30;61.00;;;;;;5034677;28;20924;-51
2022/05/31 09:30:26;;;;;;;6.90;2.83;;;19.50;61.40;;;;;;5034078;28;20466;-54
2022/05/31 09:33:10;;;;;;;4.57;1.50;;;19.60;61.00;;;;;;5034589;28;20459;-49
2022/05/31 09:35:55;;;;;;;8.30;1.87;;;19.80;59.60;;;;;;5033178;28;20822;-50
2022/05/31 09:38:57;;;;;;;6.63;1.70;;;20.10;59.30;;;;;;5034017;28;20480;-51
2022/05/31 09:41:29;;;;;;;6.40;2.30;;;19.80;58.60;;;;;;5034116;28;20592;-50
2022/05/31 09:44:04;;;;;;;3.17;1.50;;;20.30;59.20;;;;;;5034424;28;20451;-51
2022/05/31 09:46:36;;;;;;;3.20;1.60;;;20.00;58.10;;;;;;5033190;28;20443;-52
2022/05/31 09:49:17;;;;;;;3.57;1.70;;;19.80;57.90;;;;;;5032258;28;20447;-51
2022/05/31 09:51:44;;;;;;;8.50;2.07;;;20.40;58.10;;;;;;5033859;28;20431;-50
2022/05/31 09:57:21;;;;;;;6.47;2.03;;;20.70;58.70;;;;;;5033605;28;20424;-51
2022/05/31 10:00:17;;;;;;;7.10;2.07;;;20.40;58.10;;;;;;5033794;28;20466;-50
2022/05/31 10:02:59;;;;;;;5.97;1.83;;;20.40;58.30;;;;;;5034300;28;20530;-50
2022/05/31 10:05:27;;;;;;;3.80;1.50;;;20.30;57.80;;;;;;5033602;28;20798;-51
2022/05/31 10:07:54;;;;;;;7.07;2.13;;;20.20;57.70;;;;;;5032662;28;20471;-50
2022/05/31 10:10:28;;;;;;;6.97;1.93;;;20.20;58.00;;;;;;5033096;28;20491;-49
2022/05/31 10:12:58;;;;;;;4.70;2.47;;;20.30;57.80;;;;;;5056973;23;20574;-44
2022/05/31 10:15:47;;;;;;;3.20;1.90;;;20.30;57.30;;;;;;5034982;28;20987;-45
2022/05/31 10:18:25;;;;;;;6.10;2.13;;;20.60;57.30;;;;;;5034515;28;20854;-44
2022/05/31 10:20:59;;;;;;;2.90;1.60;;;20.40;56.80;;;;;;5035497;28;20482;-45
2022/05/31 10:23:33;;;;;;;2.60;1.50;;;20.50;56.40;;;;;;5034302;28;20464;-45
2022/05/31 10:26:28;;;;;;;5.87;2.80;;;20.60;56.40;;;;;;5035016;28;20534;-45
2022/05/31 10:29:19;;;;;;;4.17;2.73;;;20.70;56.40;;;;;;5034351;28;20606;-45
2022/05/31 10:31:57;;;;;;;5.53;2.30;;;21.20;56.80;;;;;;5032771;28;20479;-45
2022/05/31 10:34:34;;;;;;;3.00;2.10;;;20.70;56.10;;;;;;5034720;28;20522;-44
2022/05/31 10:37:05;;;;;;;6.80;2.17;;;21.10;55.90;;;;;;5033523;28;20852;-45
2022/05/31 10:39:36;;;;;;;5.27;1.90;;;20.80;55.90;;;;;;5033367;28;21021;-45
2022/05/31 10:42:08;;;;;;;2.77;1.83;;;20.90;56.00;;;;;;5034157;28;20452;-45
2022/05/31 10:44:37;;;;;;;3.40;2.17;;;20.70;55.90;;;;;;5034195;28;20440;-46
2022/05/31 10:47:09;;;;;;;2.50;1.47;;;20.60;55.60;;;;;;5033984;28;20798;-45
2022/05/31 10:49:37;;;;;;;3.70;1.97;;;20.60;55.40;;;;;;5033415;28;20467;-44
2022/05/31 10:52:19;;;;;;;5.47;1.70;;;20.60;55.40;;;;;;5034015;28;20440;-44
2022/05/31 10:55:04;;;;;;;4.50;1.73;;;20.40;55.40;;;;;;5033070;28;20995;-43
2022/05/31 10:57:44;;;;;;;3.43;2.33;;;20.70;55.50;;;;;;5034406;28;20443;-44
2022/05/31 11:00:20;;;;;;;4.43;2.13;;;20.50;55.80;;;;;;5032715;28;20496;-45
2022/05/31 11:03:04;;;;;;;7.27;2.20;;;20.60;55.70;;;;;;5034165;28;20495;-46
2022/05/31 11:05:46;;;;;;;3.47;1.73;;;20.80;55.50;;;;;;5032748;28;20437;-45
2022/05/31 11:11:33;;;;;;;6.30;1.87;;;20.80;55.10;;;;;;5032969;28;20439;-45
2022/05/31 11:14:22;;;;;;;4.13;1.97;;;20.70;55.30;;;;;;5033061;28;20530;-45
2022/05/31 11:17:02;;;;;;;3.07;1.80;;;21.00;55.50;;;;;;5033579;28;20437;-45
2022/05/31 11:19:39;;;;;;;11.10;2.40;;;20.70;55.30;;;;;;5031140;28;20484;-44
2022/05/31 11:22:21;;;;;;;2.60;1.90;;;20.60;55.40;;;;;;5033448;28;20430;-45
2022/05/31 11:25:07;;;;;;;3.80;2.00;;;20.60;55.30;;;;;;5032033;28;20480;-45
2022/05/31 11:27:42;;;;;;;4.60;2.03;;;20.70;55.90;;;;;;5033603;28;20440;-45
2022/05/31 11:30:17;;;;;;;4.83;1.70;;;20.60;54.90;;;;;;5034030;28;20436;-45
2022/05/31 11:33:16;;;;;;;2.40;1.53;;;20.90;55.10;;;;;;5033811;28;20458;-45
2022/05/31 11:35:54;;;;;;;5.50;2.17;;;21.30;55.10;;;;;;5032905;28;20444;-45
2022/05/31 11:38:26;;;;;;;3.40;2.20;;;21.00;54.50;;;;;;5033226;28;20474;-45
2022/05/31 11:41:08;;;;;;;4.30;2.30;;;21.10;54.70;;;;;;5033475;28;20426;-45
2022/05/31 11:44:17;;;;;;;7.50;2.20;;;21.20;54.00;;;;;;5032926;28;20448;-45
2022/05/31 11:46:46;;;;;;;2.90;1.57;;;21.40;52.90;;;;;;5016239;28;20468;-45
2022/05/31 11:49:18;;;;;;;8.90;8.03;;;21.00;53.00;;;;;;5032565;28;20930;-44
2022/05/31 11:52:00;;;;;;;11.57;9.50;;;21.20;53.00;;;;;;5032081;28;20438;-44
2022/05/31 11:58:11;;;;;;;5.83;2.00;;;21.40;52.00;;;;;;5033430;28;20470;-44
2022/05/31 12:00:43;;;;;;;4.73;2.50;;;21.80;53.50;;;;;;5033080;28;20436;-45
2022/05/31 12:03:15;;;;;;;4.93;1.70;;;21.60;52.40;;;;;;5033323;28;20455;-45
2022/05/31 12:05:46;;;;;;;3.40;1.90;;;21.40;51.90;;;;;;5033205;28;20453;-45
2022/05/31 12:08:17;;;;;;;2.87;1.60;;;21.50;52.20;;;;;;5033138;28;20504;-45
2022/05/31 12:10:49;;;;;;;3.20;1.90;;;21.70;52.00;;;;;;5035020;28;20529;-46
2022/05/31 12:13:18;;;;;;;2.93;1.90;;;21.90;51.90;;;;;;5032779;28;20844;-45
2022/05/31 12:15:47;;;;;;;3.27;2.30;;;22.00;51.50;;;;;;5032716;28;20907;-46
2022/05/31 12:18:19;;;;;;;3.17;1.80;;;22.00;51.40;;;;;;5033053;28;20963;-46
2022/05/31 12:20:56;;;;;;;5.50;2.40;;;21.70;51.30;;;;;;5032946;28;20435;-45
2022/05/31 12:23:42;;;;;;;2.10;1.60;;;21.90;51.60;;;;;;5032909;28;20454;-45
2022/05/31 12:26:21;;;;;;;4.60;1.70;;;22.10;51.70;;;;;;5033104;28;20989;-45
2022/05/31 12:28:55;;;;;;;3.60;1.87;;;22.00;51.20;;;;;;5032361;28;20437;-45
2022/05/31 12:31:24;;;;;;;5.77;2.03;;;22.00;51.00;;;;;;5032233;28;20438;-45
2022/05/31 12:33:50;;;;;;;2.57;1.47;;;21.70;51.30;;;;;;5032869;28;20462;-45
2022/05/31 12:36:19;;;;;;;3.83;2.00;;;21.80;51.20;;;;;;5032658;28;20441;-46
2022/05/31 12:39:01;;;;;;;3.80;1.60;;;21.80;50.90;;;;;;5031638;28;20986;-45
2022/05/31 12:41:35;;;;;;;3.73;1.93;;;22.10;50.60;;;;;;5032801;28;20443;-45
2022/05/31 12:44:10;;;;;;;3.30;1.83;;;22.10;50.50;;;;;;5032703;28;20557;-44
2022/05/31 12:46:40;;;;;;;2.83;1.93;;;22.30;50.60;;;;;;5032739;28;20527;-46
2022/05/31 12:49:11;;;;;;;3.40;2.40;;;22.20;50.50;;;;;;5032256;28;20436;-46
2022/05/31 12:51:38;;;;;;;4.73;2.23;;;22.20;50.40;;;;;;5032890;28;20521;-44
2022/05/31 12:54:12;;;;;;;4.93;1.80;;;22.30;50.40;;;;;;5033731;28;20963;-45
2022/05/31 12:57:19;;;;;;;3.63;2.07;;;22.30;50.10;;;;;;5033440;28;20609;-45
2022/05/31 12:59:53;;;;;;;2.90;1.90;;;22.40;49.20;;;;;;5027401;28;20498;-45
2022/05/31 13:02:23;;;;;;;2.83;2.10;;;22.00;49.50;;;;;;5032494;28;20454;-46
2022/05/31 13:04:58;;;;;;;2.63;1.83;;;22.60;50.10;;;;;;5033091;28;20542;-44
2022/05/31 13:07:41;;;;;;;3.50;1.87;;;22.30;49.90;;;;;;5033291;28;20437;-45
2022/05/31 13:10:37;;;;;;;2.80;1.57;;;22.50;49.40;;;;;;5032691;28;20632;-45
2022/05/31 13:21:35;;;;;;;3.73;2.30;;;22.60;49.80;;;;;;4996295;28;20446;-45
2022/05/31 13:24:08;;;;;;;4.23;2.10;;;22.30;49.60;;;;;;5032262;28;20804;-46
2022/05/31 13:26:35;;;;;;;3.03;1.93;;;22.80;50.10;;;;;;5031845;28;20439;-45
2022/05/31 13:29:06;;;;;;;11.20;3.03;;;23.00;50.30;;;;;;5032949;28;20437;-45
2022/05/31 13:31:45;;;;;;;3.80;2.20;;;22.30;49.70;;;;;;5033214;28;20955;-45
2022/05/31 13:34:11;;;;;;;3.97;2.50;;;22.70;50.20;;;;;;5032661;28;20976;-45
2022/05/31 13:36:43;;;;;;;3.80;2.40;;;22.50;50.00;;;;;;5032906;28;20442;-45
2022/05/31 13:39:13;;;;;;;9.03;2.20;;;22.50;49.90;;;;;;5032268;28;20475;-44
2022/05/31 13:41:46;;;;;;;3.10;2.70;;;22.30;49.80;;;;;;5034393;28;20440;-44
2022/05/31 13:44:12;;;;;;;3.87;2.20;;;22.30;49.90;;;;;;5034895;28;20546;-47
2022/05/31 13:46:44;;;;;;;5.83;2.30;;;22.10;49.90;;;;;;5036863;28;20442;-44
2022/05/31 13:49:17;;;;;;;7.23;2.87;;;22.30;50.20;;;;;;5036386;28;20485;-45
2022/05/31 13:51:50;;;;;;;2.47;1.80;;;22.30;50.30;;;;;;5035871;28;20435;-45
2022/05/31 13:54:19;;;;;;;5.00;3.23;;;21.90;49.50;;;;;;5034648;28;20952;-45
2022/05/31 13:56:49;;;;;;;10.30;9.03;;;22.20;49.90;;;;;;5034983;28;20950;-45